Claxton — WCU9257 — position and weather

sailwx.info

Track history (hours):
 
Tides and Currents Weather Stations Pressure Air Temp Water Temp Dewpoint Dewpoint Depression Visibility Wind Speed Wind Dir Waves Ship Positions

Claxton

Owner: G & H TOWING COMPANY, GALVESTON, TX. More information available from US FCC via Universal Licensing System and Coast Guard Vessel Documentation Center.

Last reported at 2018-Jul-22 00:21 UTC. Time now 2018-Jul-22 01:13 UTC.
Position N 29°45' W 095°10'.

Length 27 m; draft 5.3 m.

Type: Tug. MMSI: 366921670.

Date/timePositionNaut miles runAvg speedWind from/ knotsBaromVisibWave heightAir tempDewpointWater temp
2018-Jul-22 00:21N 29°45' W 095°10'0 0.0
2018-Jul-21 23:54N 29°45' W 095°10'0 0.0
2018-Jul-21 23:18N 29°45' W 095°10'1 3.1
2018-Jul-21 22:51N 29°44' W 095°09'2 1.0
2018-Jul-21 21:02N 29°44' W 095°07'0 0.1
2018-Jul-21 16:35N 29°44' W 095°07'0 0.0
2018-Jul-21 16:12N 29°44' W 095°07'1 3.2
2018-Jul-21 15:59N 29°44' W 095°08'0 0.0
2018-Jul-21 15:28N 29°44' W 095°08'1 1.2
2018-Jul-21 14:54N 29°44' W 095°07'0 0.0
2018-Jul-21 14:24N 29°44' W 095°07'1 0.6
2018-Jul-21 13:30N 29°45' W 095°06'1 0.8
2018-Jul-21 12:48N 29°45' W 095°06'0 0.5
2018-Jul-21 12:30N 29°45' W 095°06'1 0.6
2018-Jul-21 11:32N 29°45' W 095°07'0 0.0
2018-Jul-21 11:23N 29°45' W 095°07'0 0.0
2018-Jul-21 10:59N 29°45' W 095°07'0 0.0
2018-Jul-21 10:25N 29°45' W 095°07'3 6.0
2018-Jul-21 10:00N 29°44' W 095°10'3 6.0
2018-Jul-21 09:29N 29°44' W 095°13'0 0.2
2018-Jul-21 08:58N 29°43' W 095°13'0 0.4
2018-Jul-21 08:30N 29°43' W 095°13'2 4.4
2018-Jul-21 08:00N 29°45' W 095°11'3 5.6
2018-Jul-21 07:30N 29°44' W 095°08'1 2.1
2018-Jul-21 07:00N 29°44' W 095°07'0 0.4
2018-Jul-21 06:25N 29°45' W 095°07'0 0.0
2018-Jul-21 06:00N 29°45' W 095°07'0 0.0
2018-Jul-21 05:30N 29°45' W 095°07'0 0.0
2018-Jul-21 05:00N 29°45' W 095°07'0 0.0
2018-Jul-21 02:12N 29°45' W 095°07'0 0.0
2018-Jul-21 01:54N 29°45' W 095°07'0 0.0
2018-Jul-20 21:36N 29°45' W 095°07'1 4.6
2018-Jul-20 21:27N 29°44' W 095°07'3 1.1
2018-Jul-20 18:50N 29°45' W 095°11'8 3.7
2018-Jul-20 16:34N 29°43' W 095°01'1 7.8
2018-Jul-20 16:30N 29°42' W 095°01'0 0.0
2018-Jul-20 13:51N 29°42' W 095°01'1 3.6
2018-Jul-20 13:29N 29°44' W 095°01'2 2.3
2018-Jul-20 12:45N 29°44' W 095°03'0 0.5
2018-Jul-20 12:28N 29°44' W 095°03'2 3.4
2018-Jul-20 12:00N 29°44' W 095°01'1 2.2
2018-Jul-20 11:30N 29°44' W 095°03'3 6.1
2018-Jul-20 10:59N 29°45' W 095°06'1 0.7
2018-Jul-20 10:04N 29°45' W 095°07'0 0.0
2018-Jul-20 09:55N 29°45' W 095°07'0 0.0
2018-Jul-20 09:30N 29°45' W 095°07'1 2.7
2018-Jul-20 09:00N 29°44' W 095°08'0 0.3
2018-Jul-20 08:29N 29°44' W 095°08'1 2.5
2018-Jul-20 08:00N 29°44' W 095°07'0 0.1
2018-Jul-20 07:30N 29°44' W 095°07'0 0.0
2018-Jul-20 07:00N 29°44' W 095°07'0 0.0
2018-Jul-20 06:30N 29°44' W 095°07'0 0.0
2018-Jul-20 06:00N 29°44' W 095°07'0 0.0
2018-Jul-20 05:30N 29°44' W 095°07'0 0.0
2018-Jul-20 05:00N 29°44' W 095°07'0 0.0
2018-Jul-20 04:27N 29°44' W 095°07'0 0.0
2018-Jul-20 03:57N 29°44' W 095°07'0 0.0
2018-Jul-20 03:12N 29°44' W 095°07'0 0.0
2018-Jul-20 02:45N 29°44' W 095°07'1 0.8
2018-Jul-20 01:59N 29°44' W 095°07'1 1.2
2018-Jul-20 01:30N 29°44' W 095°07'1 1.3
2018-Jul-20 00:46N 29°44' W 095°08'1 1.3
2018-Jul-20 00:06N 29°44' W 095°09'3 0.5
2018-Jul-19 17:16N 29°44' W 095°12'0 0.0
2018-Jul-19 16:56N 29°44' W 095°12'1 1.1
2018-Jul-19 16:16N 29°45' W 095°12'1 3.6
2018-Jul-19 15:53N 29°45' W 095°10'3 0.9
2018-Jul-19 12:41N 29°44' W 095°07'0 2.1
2018-Jul-19 12:30N 29°44' W 095°07'4 8.0
2018-Jul-19 12:00N 29°45' W 095°12'1 1.3
2018-Jul-19 11:25N 29°44' W 095°12'0 0.3
2018-Jul-19 10:53N 29°44' W 095°12'0 0.0
2018-Jul-19 10:20N 29°44' W 095°12'0 0.0
2018-Jul-19 08:50N 29°44' W 095°12'0 0.0
2018-Jul-19 08:29N 29°44' W 095°12'0 0.0
2018-Jul-19 07:59N 29°44' W 095°12'0 0.0
2018-Jul-19 07:22N 29°44' W 095°12'0 0.0
2018-Jul-19 06:34N 29°44' W 095°12'0 1.4
2018-Jul-19 06:30N 29°44' W 095°12'0 0.5
2018-Jul-19 06:00N 29°45' W 095°12'0 0.2
2018-Jul-19 04:29N 29°44' W 095°12'0 0.1
2018-Jul-19 03:12N 29°44' W 095°12'2 7.8
2018-Jul-19 02:58N 29°43' W 095°14'1 0.1
2018-Jul-18 20:32N 29°44' W 095°13'0 0.5
2018-Jul-18 20:29N 29°44' W 095°13'4 3.2
2018-Jul-18 19:15N 29°44' W 095°09'2 6.2
2018-Jul-18 19:00N 29°44' W 095°07'2 0.6
2018-Jul-18 16:17N 29°44' W 095°09'0 0.4
2018-Jul-18 15:23N 29°44' W 095°09'3 1.6
2018-Jul-18 13:44N 29°44' W 095°12'0 0.0
2018-Jul-18 13:18N 29°44' W 095°12'0 1.3
2018-Jul-18 13:00N 29°45' W 095°12'0 0.2
2018-Jul-18 12:30N 29°45' W 095°12'1 1.5
2018-Jul-18 11:35N 29°45' W 095°10'0 0.0
2018-Jul-18 11:23N 29°45' W 095°10'0 0.0
2018-Jul-18 10:29N 29°45' W 095°10'0 0.0
2018-Jul-18 09:56N 29°45' W 095°10'0 0.0
2018-Jul-18 08:47N 29°45' W 095°10'0 0.0
2018-Jul-18 07:47N 29°45' W 095°10'0 0.0
2018-Jul-18 07:29N 29°45' W 095°10'0 0.0
2018-Jul-18 06:59N 29°45' W 095°10'1 3.0
2018-Jul-18 06:29N 29°45' W 095°12'0 0.2
2018-Jul-18 05:07N 29°44' W 095°12'0 0.0
2018-Jul-18 04:43N 29°44' W 095°12'0 0.0
2018-Jul-18 04:25N 29°44' W 095°12'0 0.0
2018-Jul-18 03:43N 29°44' W 095°12'0 0.0
2018-Jul-18 03:26N 29°44' W 095°12'3 1.5
2018-Jul-18 01:21N 29°44' W 095°09'2 0.9
2018-Jul-17 22:57N 29°45' W 095°06'1 0.3
2018-Jul-17 20:41N 29°45' W 095°06'1 2.5
2018-Jul-17 20:21N 29°46' W 095°05'2 0.6
2018-Jul-17 17:19N 29°44' W 095°07'0 0.0
2018-Jul-17 16:43N 29°44' W 095°07'1 0.6
2018-Jul-17 15:38N 29°44' W 095°07'1 2.9
2018-Jul-17 15:19N 29°45' W 095°06'0 0.3
2018-Jul-17 14:24N 29°45' W 095°07'0 0.0
2018-Jul-17 13:57N 29°45' W 095°07'0 0.0
2018-Jul-17 13:15N 29°45' W 095°07'0 0.0
2018-Jul-17 12:50N 29°45' W 095°07'1 3.1
2018-Jul-17 12:30N 29°44' W 095°08'0 0.2
2018-Jul-17 11:58N 29°44' W 095°08'1 1.3
2018-Jul-17 11:30N 29°44' W 095°07'0 0.0
2018-Jul-17 11:00N 29°44' W 095°07'0 0.0
2018-Jul-17 10:30N 29°44' W 095°07'0 0.0
2018-Jul-17 10:00N 29°44' W 095°07'0 0.0
2018-Jul-17 09:30N 29°44' W 095°07'0 0.0
2018-Jul-17 08:57N 29°44' W 095°07'0 0.0
2018-Jul-17 08:30N 29°44' W 095°07'0 0.0
2018-Jul-17 08:00N 29°44' W 095°07'0 0.0
2018-Jul-17 07:30N 29°44' W 095°07'1 1.2
2018-Jul-17 06:59N 29°44' W 095°08'1 1.3
2018-Jul-17 06:30N 29°44' W 095°07'0 0.0
2018-Jul-17 06:00N 29°44' W 095°07'1 2.1
2018-Jul-17 05:30N 29°45' W 095°06'0 0.4
2018-Jul-17 05:00N 29°45' W 095°06'1 2.0
2018-Jul-17 04:30N 29°46' W 095°05'1 2.6
2018-Jul-17 04:00N 29°45' W 095°06'0 0.0
2018-Jul-16 20:23N 29°45' W 095°06'0 0.1
2018-Jul-16 19:50N 29°45' W 095°06'0 0.1
2018-Jul-16 16:13N 29°44' W 095°07'3 4.4
2018-Jul-16 15:30N 29°44' W 095°03'0 0.3
2018-Jul-16 15:00N 29°44' W 095°03'2 2.9
2018-Jul-16 14:29N 29°45' W 095°04'3 5.7
2018-Jul-16 14:00N 29°44' W 095°07'0 0.1
2018-Jul-16 13:29N 29°44' W 095°07'0 0.0
2018-Jul-16 12:59N 29°44' W 095°07'3 6.0
2018-Jul-16 12:29N 29°45' W 095°10'1 2.8
2018-Jul-16 12:00N 29°45' W 095°12'2 1.6
2018-Jul-16 11:00N 29°45' W 095°10'0 0.1
2018-Jul-16 10:26N 29°45' W 095°10'0 0.0
2018-Jul-16 09:56N 29°45' W 095°10'0 0.0
2018-Jul-16 09:20N 29°45' W 095°10'0 0.6
2018-Jul-16 08:58N 29°45' W 095°10'4 7.5
2018-Jul-16 08:30N 29°43' W 095°14'0 0.4
2018-Jul-16 07:59N 29°43' W 095°14'0 0.1
2018-Jul-16 07:30N 29°43' W 095°14'1 1.7
2018-Jul-16 06:57N 29°43' W 095°13'1 0.1
2018-Jul-16 01:48N 29°43' W 095°14'0 0.0
2018-Jul-16 01:29N 29°43' W 095°14'3 1.5
2018-Jul-15 23:47N 29°45' W 095°11'0 0.0
2018-Jul-15 23:30N 29°45' W 095°11'3 2.9
2018-Jul-15 22:19N 29°44' W 095°07'0 0.1
2018-Jul-15 14:02N 29°44' W 095°07'0 0.1
2018-Jul-15 13:50N 29°44' W 095°07'0 0.4
2018-Jul-15 13:11N 29°44' W 095°07'1 0.3
2018-Jul-15 09:11N 29°44' W 095°08'2 7.7
2018-Jul-15 08:59N 29°45' W 095°10'0 0.0
2018-Jul-14 20:31N 29°45' W 095°10'1 5.3
2018-Jul-14 20:15N 29°44' W 095°09'2 6.7
2018-Jul-14 20:00N 29°44' W 095°07'2 1.5
2018-Jul-14 18:47N 29°46' W 095°05'5 5.4
2018-Jul-14 17:52N 29°42' W 095°01'2 5.1
2018-Jul-14 17:26N 29°41' W 094°59'0 0.0
2018-Jul-14 16:59N 29°41' W 094°59'1 1.8
2018-Jul-14 16:28N 29°41' W 095°00'0 0.4
2018-Jul-14 16:00N 29°41' W 095°00'2 4.2
2018-Jul-14 15:30N 29°39' W 094°58'4 8.0
2018-Jul-14 14:59N 29°43' W 095°01'3 7.0
2018-Jul-14 14:30N 29°45' W 095°04'2 0.4
2018-Jul-14 08:09N 29°44' W 095°07'1 3.4
2018-Jul-14 07:58N 29°45' W 095°06'0 0.0
2018-Jul-14 07:25N 29°45' W 095°06'1 2.2
2018-Jul-14 07:00N 29°46' W 095°05'2 3.5
2018-Jul-14 06:29N 29°44' W 095°07'0 0.0
2018-Jul-14 02:48N 29°44' W 095°07'1 1.9
2018-Jul-14 02:25N 29°45' W 095°06'0 0.9
2018-Jul-14 02:00N 29°45' W 095°06'0 0.8
2018-Jul-14 01:30N 29°45' W 095°06'1 0.4
2018-Jul-13 23:06N 29°44' W 095°07'0 0.0
2018-Jul-13 22:36N 29°44' W 095°07'0 0.0
2018-Jul-13 22:15N 29°44' W 095°07'0 0.0
2018-Jul-13 21:54N 29°44' W 095°07'0 0.0
2018-Jul-13 20:55N 29°44' W 095°07'0 0.1
2018-Jul-13 19:49N 29°44' W 095°07'1 0.7
2018-Jul-13 19:07N 29°44' W 095°06'0 0.1
2018-Jul-13 17:32N 29°45' W 095°06'1 0.6
2018-Jul-13 16:43N 29°45' W 095°06'1 4.6
2018-Jul-13 16:30N 29°46' W 095°05'2 0.6
2018-Jul-13 13:39N 29°44' W 095°07'1 0.9
2018-Jul-13 12:24N 29°44' W 095°08'3 0.9
2018-Jul-13 08:43N 29°45' W 095°12'4 2.7
2018-Jul-13 07:16N 29°44' W 095°07'0 0.0
2018-Jul-13 06:50N 29°44' W 095°07'3 5.1
2018-Jul-13 06:16N 29°45' W 095°04'3 5.9
2018-Jul-13 05:49N 29°43' W 095°01'0 0.0
2018-Jul-13 05:24N 29°44' W 095°01'1 3.1
2018-Jul-13 05:00N 29°42' W 095°01'0 0.0
2018-Jul-13 04:30N 29°42' W 095°01'0 0.0
2018-Jul-13 04:00N 29°42' W 095°01'0 0.0
2018-Jul-13 03:30N 29°42' W 095°01'0 0.0
2018-Jul-13 03:00N 29°42' W 095°01'0 0.0
2018-Jul-13 02:07N 29°42' W 095°01'0 0.4
2018-Jul-13 02:01N 29°42' W 095°01'0 0.0
2018-Jul-13 01:29N 29°42' W 095°01'2 3.5
2018-Jul-13 01:00N 29°42' W 094°59'1 2.4
2018-Jul-13 00:31N 29°41' W 095°01'0 0.0
2018-Jul-13 00:00N 29°41' W 095°01'1 2.5
2018-Jul-12 23:31N 29°41' W 094°59'0 0.7
2018-Jul-12 23:01N 29°41' W 094°59'4 8.1
2018-Jul-12 22:30N 29°44' W 095°02'4 0.4
2018-Jul-12 12:26N 29°45' W 095°06'0 0.1
2018-Jul-12 11:59N 29°45' W 095°06'0 0.4
2018-Jul-12 11:30N 29°44' W 095°07'0 0.0
2018-Jul-12 10:25N 29°44' W 095°07'1 2.4
2018-Jul-12 09:59N 29°44' W 095°08'4 7.2
2018-Jul-12 09:27N 29°44' W 095°12'1 0.1
2018-Jul-12 00:52N 29°44' W 095°13'0 0.1
2018-Jul-12 00:25N 29°44' W 095°14'  
Track history (hours):
 
Tides and Currents Weather Stations Pressure Air Temp Water Temp Dewpoint Dewpoint Depression Visibility Wind Speed Wind Dir Waves Ship Positions

Claxton

Owner: G & H TOWING COMPANY, GALVESTON, TX. More information available from US FCC via Universal Licensing System and Coast Guard Vessel Documentation Center.

Last reported at 2018-Jul-22 00:21 UTC. Time now 2018-Jul-22 01:13 UTC.
Position N 29°45' W 095°10'.

Length 27 m; draft 5.3 m.

Type: Tug. MMSI: 366921670.

Date/timePositionNaut miles runAvg speedWind from/ knotsBaromVisibWave heightAir tempDewpointWater temp
2018-Jul-22 00:21N 29°45' W 095°10'0 0.0
2018-Jul-21 23:54N 29°45' W 095°10'0 0.0
2018-Jul-21 23:18N 29°45' W 095°10'1 3.1
2018-Jul-21 22:51N 29°44' W 095°09'2 1.0
2018-Jul-21 21:02N 29°44' W 095°07'0 0.1
2018-Jul-21 16:35N 29°44' W 095°07'0 0.0
2018-Jul-21 16:12N 29°44' W 095°07'1 3.2
2018-Jul-21 15:59N 29°44' W 095°08'0 0.0
2018-Jul-21 15:28N 29°44' W 095°08'1 1.2
2018-Jul-21 14:54N 29°44' W 095°07'0 0.0
2018-Jul-21 14:24N 29°44' W 095°07'1 0.6
2018-Jul-21 13:30N 29°45' W 095°06'1 0.8
2018-Jul-21 12:48N 29°45' W 095°06'0 0.5
2018-Jul-21 12:30N 29°45' W 095°06'1 0.6
2018-Jul-21 11:32N 29°45' W 095°07'0 0.0
2018-Jul-21 11:23N 29°45' W 095°07'0 0.0
2018-Jul-21 10:59N 29°45' W 095°07'0 0.0
2018-Jul-21 10:25N 29°45' W 095°07'3 6.0
2018-Jul-21 10:00N 29°44' W 095°10'3 6.0
2018-Jul-21 09:29N 29°44' W 095°13'0 0.2
2018-Jul-21 08:58N 29°43' W 095°13'0 0.4
2018-Jul-21 08:30N 29°43' W 095°13'2 4.4
2018-Jul-21 08:00N 29°45' W 095°11'3 5.6
2018-Jul-21 07:30N 29°44' W 095°08'1 2.1
2018-Jul-21 07:00N 29°44' W 095°07'0 0.4
2018-Jul-21 06:25N 29°45' W 095°07'0 0.0
2018-Jul-21 06:00N 29°45' W 095°07'0 0.0
2018-Jul-21 05:30N 29°45' W 095°07'0 0.0
2018-Jul-21 05:00N 29°45' W 095°07'0 0.0
2018-Jul-21 02:12N 29°45' W 095°07'0 0.0
2018-Jul-21 01:54N 29°45' W 095°07'0 0.0
2018-Jul-20 21:36N 29°45' W 095°07'1 4.6
2018-Jul-20 21:27N 29°44' W 095°07'3 1.1
2018-Jul-20 18:50N 29°45' W 095°11'8 3.7
2018-Jul-20 16:34N 29°43' W 095°01'1 7.8
2018-Jul-20 16:30N 29°42' W 095°01'0 0.0
2018-Jul-20 13:51N 29°42' W 095°01'1 3.6
2018-Jul-20 13:29N 29°44' W 095°01'2 2.3
2018-Jul-20 12:45N 29°44' W 095°03'0 0.5
2018-Jul-20 12:28N 29°44' W 095°03'2 3.4
2018-Jul-20 12:00N 29°44' W 095°01'1 2.2
2018-Jul-20 11:30N 29°44' W 095°03'3 6.1
2018-Jul-20 10:59N 29°45' W 095°06'1 0.7
2018-Jul-20 10:04N 29°45' W 095°07'0 0.0
2018-Jul-20 09:55N 29°45' W 095°07'0 0.0
2018-Jul-20 09:30N 29°45' W 095°07'1 2.7
2018-Jul-20 09:00N 29°44' W 095°08'0 0.3
2018-Jul-20 08:29N 29°44' W 095°08'1 2.5
2018-Jul-20 08:00N 29°44' W 095°07'0 0.1
2018-Jul-20 07:30N 29°44' W 095°07'0 0.0
2018-Jul-20 07:00N 29°44' W 095°07'0 0.0
2018-Jul-20 06:30N 29°44' W 095°07'0 0.0
2018-Jul-20 06:00N 29°44' W 095°07'0 0.0
2018-Jul-20 05:30N 29°44' W 095°07'0 0.0
2018-Jul-20 05:00N 29°44' W 095°07'0 0.0
2018-Jul-20 04:27N 29°44' W 095°07'0 0.0
2018-Jul-20 03:57N 29°44' W 095°07'0 0.0
2018-Jul-20 03:12N 29°44' W 095°07'0 0.0
2018-Jul-20 02:45N 29°44' W 095°07'1 0.8
2018-Jul-20 01:59N 29°44' W 095°07'1 1.2
2018-Jul-20 01:30N 29°44' W 095°07'1 1.3
2018-Jul-20 00:46N 29°44' W 095°08'1 1.3
2018-Jul-20 00:06N 29°44' W 095°09'3 0.5
2018-Jul-19 17:16N 29°44' W 095°12'0 0.0
2018-Jul-19 16:56N 29°44' W 095°12'1 1.1
2018-Jul-19 16:16N 29°45' W 095°12'1 3.6
2018-Jul-19 15:53N 29°45' W 095°10'3 0.9
2018-Jul-19 12:41N 29°44' W 095°07'0 2.1
2018-Jul-19 12:30N 29°44' W 095°07'4 8.0
2018-Jul-19 12:00N 29°45' W 095°12'1 1.3
2018-Jul-19 11:25N 29°44' W 095°12'0 0.3
2018-Jul-19 10:53N 29°44' W 095°12'0 0.0
2018-Jul-19 10:20N 29°44' W 095°12'0 0.0
2018-Jul-19 08:50N 29°44' W 095°12'0 0.0
2018-Jul-19 08:29N 29°44' W 095°12'0 0.0
2018-Jul-19 07:59N 29°44' W 095°12'0 0.0
2018-Jul-19 07:22N 29°44' W 095°12'0 0.0
2018-Jul-19 06:34N 29°44' W 095°12'0 1.4
2018-Jul-19 06:30N 29°44' W 095°12'0 0.5
2018-Jul-19 06:00N 29°45' W 095°12'0 0.2
2018-Jul-19 04:29N 29°44' W 095°12'0 0.1
2018-Jul-19 03:12N 29°44' W 095°12'2 7.8
2018-Jul-19 02:58N 29°43' W 095°14'1 0.1
2018-Jul-18 20:32N 29°44' W 095°13'0 0.5
2018-Jul-18 20:29N 29°44' W 095°13'4 3.2
2018-Jul-18 19:15N 29°44' W 095°09'2 6.2
2018-Jul-18 19:00N 29°44' W 095°07'2 0.6
2018-Jul-18 16:17N 29°44' W 095°09'0 0.4
2018-Jul-18 15:23N 29°44' W 095°09'3 1.6
2018-Jul-18 13:44N 29°44' W 095°12'0 0.0
2018-Jul-18 13:18N 29°44' W 095°12'0 1.3
2018-Jul-18 13:00N 29°45' W 095°12'0 0.2
2018-Jul-18 12:30N 29°45' W 095°12'1 1.5
2018-Jul-18 11:35N 29°45' W 095°10'0 0.0
2018-Jul-18 11:23N 29°45' W 095°10'0 0.0
2018-Jul-18 10:29N 29°45' W 095°10'0 0.0
2018-Jul-18 09:56N 29°45' W 095°10'0 0.0
2018-Jul-18 08:47N 29°45' W 095°10'0 0.0
2018-Jul-18 07:47N 29°45' W 095°10'0 0.0
2018-Jul-18 07:29N 29°45' W 095°10'0 0.0
2018-Jul-18 06:59N 29°45' W 095°10'1 3.0
2018-Jul-18 06:29N 29°45' W 095°12'0 0.2
2018-Jul-18 05:07N 29°44' W 095°12'0 0.0
2018-Jul-18 04:43N 29°44' W 095°12'0 0.0
2018-Jul-18 04:25N 29°44' W 095°12'0 0.0
2018-Jul-18 03:43N 29°44' W 095°12'0 0.0
2018-Jul-18 03:26N 29°44' W 095°12'3 1.5
2018-Jul-18 01:21N 29°44' W 095°09'2 0.9
2018-Jul-17 22:57N 29°45' W 095°06'1 0.3
2018-Jul-17 20:41N 29°45' W 095°06'1 2.5
2018-Jul-17 20:21N 29°46' W 095°05'2 0.6
2018-Jul-17 17:19N 29°44' W 095°07'0 0.0
2018-Jul-17 16:43N 29°44' W 095°07'1 0.6
2018-Jul-17 15:38N 29°44' W 095°07'1 2.9
2018-Jul-17 15:19N 29°45' W 095°06'0 0.3
2018-Jul-17 14:24N 29°45' W 095°07'0 0.0
2018-Jul-17 13:57N 29°45' W 095°07'0 0.0
2018-Jul-17 13:15N 29°45' W 095°07'0 0.0
2018-Jul-17 12:50N 29°45' W 095°07'1 3.1
2018-Jul-17 12:30N 29°44' W 095°08'0 0.2
2018-Jul-17 11:58N 29°44' W 095°08'1 1.3
2018-Jul-17 11:30N 29°44' W 095°07'0 0.0
2018-Jul-17 11:00N 29°44' W 095°07'0 0.0
2018-Jul-17 10:30N 29°44' W 095°07'0 0.0
2018-Jul-17 10:00N 29°44' W 095°07'0 0.0
2018-Jul-17 09:30N 29°44' W 095°07'0 0.0
2018-Jul-17 08:57N 29°44' W 095°07'0 0.0
2018-Jul-17 08:30N 29°44' W 095°07'0 0.0
2018-Jul-17 08:00N 29°44' W 095°07'0 0.0
2018-Jul-17 07:30N 29°44' W 095°07'1 1.2
2018-Jul-17 06:59N 29°44' W 095°08'1 1.3
2018-Jul-17 06:30N 29°44' W 095°07'0 0.0
2018-Jul-17 06:00N 29°44' W 095°07'1 2.1
2018-Jul-17 05:30N 29°45' W 095°06'0 0.4
2018-Jul-17 05:00N 29°45' W 095°06'1 2.0
2018-Jul-17 04:30N 29°46' W 095°05'1 2.6
2018-Jul-17 04:00N 29°45' W 095°06'0 0.0
2018-Jul-16 20:23N 29°45' W 095°06'0 0.1
2018-Jul-16 19:50N 29°45' W 095°06'0 0.1
2018-Jul-16 16:13N 29°44' W 095°07'3 4.4
2018-Jul-16 15:30N 29°44' W 095°03'0 0.3
2018-Jul-16 15:00N 29°44' W 095°03'2 2.9
2018-Jul-16 14:29N 29°45' W 095°04'3 5.7
2018-Jul-16 14:00N 29°44' W 095°07'0 0.1
2018-Jul-16 13:29N 29°44' W 095°07'0 0.0
2018-Jul-16 12:59N 29°44' W 095°07'3 6.0
2018-Jul-16 12:29N 29°45' W 095°10'1 2.8
2018-Jul-16 12:00N 29°45' W 095°12'2 1.6
2018-Jul-16 11:00N 29°45' W 095°10'0 0.1
2018-Jul-16 10:26N 29°45' W 095°10'0 0.0
2018-Jul-16 09:56N 29°45' W 095°10'0 0.0
2018-Jul-16 09:20N 29°45' W 095°10'0 0.6
2018-Jul-16 08:58N 29°45' W 095°10'4 7.5
2018-Jul-16 08:30N 29°43' W 095°14'0 0.4
2018-Jul-16 07:59N 29°43' W 095°14'0 0.1
2018-Jul-16 07:30N 29°43' W 095°14'1 1.7
2018-Jul-16 06:57N 29°43' W 095°13'1 0.1
2018-Jul-16 01:48N 29°43' W 095°14'0 0.0
2018-Jul-16 01:29N 29°43' W 095°14'3 1.5
2018-Jul-15 23:47N 29°45' W 095°11'0 0.0
2018-Jul-15 23:30N 29°45' W 095°11'3 2.9
2018-Jul-15 22:19N 29°44' W 095°07'0 0.1
2018-Jul-15 14:02N 29°44' W 095°07'0 0.1
2018-Jul-15 13:50N 29°44' W 095°07'0 0.4
2018-Jul-15 13:11N 29°44' W 095°07'1 0.3
2018-Jul-15 09:11N 29°44' W 095°08'2 7.7
2018-Jul-15 08:59N 29°45' W 095°10'0 0.0
2018-Jul-14 20:31N 29°45' W 095°10'1 5.3
2018-Jul-14 20:15N 29°44' W 095°09'2 6.7
2018-Jul-14 20:00N 29°44' W 095°07'2 1.5
2018-Jul-14 18:47N 29°46' W 095°05'5 5.4
2018-Jul-14 17:52N 29°42' W 095°01'2 5.1
2018-Jul-14 17:26N 29°41' W 094°59'0 0.0
2018-Jul-14 16:59N 29°41' W 094°59'1 1.8
2018-Jul-14 16:28N 29°41' W 095°00'0 0.4
2018-Jul-14 16:00N 29°41' W 095°00'2 4.2
2018-Jul-14 15:30N 29°39' W 094°58'4 8.0
2018-Jul-14 14:59N 29°43' W 095°01'3 7.0
2018-Jul-14 14:30N 29°45' W 095°04'2 0.4
2018-Jul-14 08:09N 29°44' W 095°07'1 3.4
2018-Jul-14 07:58N 29°45' W 095°06'0 0.0
2018-Jul-14 07:25N 29°45' W 095°06'1 2.2
2018-Jul-14 07:00N 29°46' W 095°05'2 3.5
2018-Jul-14 06:29N 29°44' W 095°07'0 0.0
2018-Jul-14 02:48N 29°44' W 095°07'1 1.9
2018-Jul-14 02:25N 29°45' W 095°06'0 0.9
2018-Jul-14 02:00N 29°45' W 095°06'0 0.8
2018-Jul-14 01:30N 29°45' W 095°06'1 0.4
2018-Jul-13 23:06N 29°44' W 095°07'0 0.0
2018-Jul-13 22:36N 29°44' W 095°07'0 0.0
2018-Jul-13 22:15N 29°44' W 095°07'0 0.0
2018-Jul-13 21:54N 29°44' W 095°07'0 0.0
2018-Jul-13 20:55N 29°44' W 095°07'0 0.1
2018-Jul-13 19:49N 29°44' W 095°07'1 0.7
2018-Jul-13 19:07N 29°44' W 095°06'0 0.1
2018-Jul-13 17:32N 29°45' W 095°06'1 0.6
2018-Jul-13 16:43N 29°45' W 095°06'1 4.6
2018-Jul-13 16:30N 29°46' W 095°05'2 0.6
2018-Jul-13 13:39N 29°44' W 095°07'1 0.9
2018-Jul-13 12:24N 29°44' W 095°08'3 0.9
2018-Jul-13 08:43N 29°45' W 095°12'4 2.7
2018-Jul-13 07:16N 29°44' W 095°07'0 0.0
2018-Jul-13 06:50N 29°44' W 095°07'3 5.1
2018-Jul-13 06:16N 29°45' W 095°04'3 5.9
2018-Jul-13 05:49N 29°43' W 095°01'0 0.0
2018-Jul-13 05:24N 29°44' W 095°01'1 3.1
2018-Jul-13 05:00N 29°42' W 095°01'0 0.0
2018-Jul-13 04:30N 29°42' W 095°01'0 0.0
2018-Jul-13 04:00N 29°42' W 095°01'0 0.0
2018-Jul-13 03:30N 29°42' W 095°01'0 0.0
2018-Jul-13 03:00N 29°42' W 095°01'0 0.0
2018-Jul-13 02:07N 29°42' W 095°01'0 0.4
2018-Jul-13 02:01N 29°42' W 095°01'0 0.0
2018-Jul-13 01:29N 29°42' W 095°01'2 3.5
2018-Jul-13 01:00N 29°42' W 094°59'1 2.4
2018-Jul-13 00:31N 29°41' W 095°01'0 0.0
2018-Jul-13 00:00N 29°41' W 095°01'1 2.5
2018-Jul-12 23:31N 29°41' W 094°59'0 0.7
2018-Jul-12 23:01N 29°41' W 094°59'4 8.1
2018-Jul-12 22:30N 29°44' W 095°02'4 0.4
2018-Jul-12 12:26N 29°45' W 095°06'0 0.1
2018-Jul-12 11:59N 29°45' W 095°06'0 0.4
2018-Jul-12 11:30N 29°44' W 095°07'0 0.0
2018-Jul-12 10:25N 29°44' W 095°07'1 2.4
2018-Jul-12 09:59N 29°44' W 095°08'4 7.2
2018-Jul-12 09:27N 29°44' W 095°12'1 0.1
2018-Jul-12 00:52N 29°44' W 095°13'0 0.1
2018-Jul-12 00:25N 29°44' W 095°14'  

Dump ship's entire track history